LTBI/ESK METAR and TAF weather

Enter ICAO airport designator
Station Type Date Time Source
LTBI METAR 2021/01/17 18:50 UTC NOAA

LTBI 171850Z 27006KT 9999 BKN040 M05/M08 Q1011 NOSIG RMK RWY08 28011KT


Station Type Date Time Source
LTBI Decoded METAR 2021/01/17 18:50 UTC NOAA

Eskisehir, Turkey (LTBI) 39-47N 030-34E 785M
Jan 17, 2021 - 01:50 PM EST / 2021.01.17 1850 UTC
Wind: from the W (270 degrees) at 7 MPH (6 KT):0
Visibility: greater than 7 mile(s):0
Sky conditions: mostly cloudy
Temperature: 23 F (-5 C)
Windchill: 14 F (-10 C):1
Dew Point: 17 F (-8 C)
Relative Humidity: 79%
Pressure (altimeter): 29.85 in. Hg (1011 hPa)
ob: LTBI 171850Z 27006KT 9999 BKN040 M05/M08 Q1011 NOSIG RMK RWY08 28011KT
cycle: 19

Station Type Date Time Source
LTBI TAF 2012/05/11 09:09 UTC NOAA

TAF LTBI 110740Z 1109/1121 VRB02KT 6000 -SHRA BKN030 BKN090
TEMPO 1112/1116 33015KT 4000 -TSRA FEW025CB BKN030

Example: see airport list